Time;durP1;ratioP1;P1;durP2;ratioP2;P2;SDS_P1;SDS_P2;PMS_P1;PMS_P2;Temp;Humidity;BMP_temperature;BMP_pressure;BME280_temperature;BME280_humidity;BME280_pressure;Samples;Min_cycle;Max_cycle;Signal;HPM_P1;HPM_P2
2021/01/06 00:01:33;;;;;;;29.10;11.60;;;0.90;99.90;;;;;;5070047;28;20450;-54
2021/01/06 00:03:59;;;;;;;26.67;11.80;;;1.00;99.90;;;;;;5070011;28;20564;-55
2021/01/06 00:06:28;;;;;;;26.97;12.23;;;1.10;99.90;;;;;;5069816;28;20462;-54
2021/01/06 00:08:56;;;;;;;28.73;11.97;;;1.00;99.90;;;;;;5069781;28;20459;-54
2021/01/06 00:11:31;;;;;;;29.07;11.37;;;1.10;99.90;;;;;;5070510;28;20447;-54
2021/01/06 00:13:57;;;;;;;29.73;11.50;;;1.10;99.90;;;;;;5069698;28;20987;-54
2021/01/06 00:16:24;;;;;;;37.80;13.00;;;1.10;99.90;;;;;;5069942;28;20447;-54
2021/01/06 00:18:51;;;;;;;43.37;15.20;;;1.20;99.90;;;;;;5069391;28;20805;-54
2021/01/06 00:21:18;;;;;;;28.37;12.00;;;1.10;99.90;;;;;;5069973;28;20839;-53
2021/01/06 00:23:44;;;;;;;33.47;11.70;;;1.10;99.90;;;;;;5070493;28;20478;-54
2021/01/06 00:26:12;;;;;;;32.27;12.23;;;1.10;99.90;;;;;;5070272;28;20461;-54
2021/01/06 00:28:38;;;;;;;33.50;12.10;;;1.10;99.90;;;;;;5064807;28;20455;-54
2021/01/06 00:31:05;;;;;;;28.77;11.30;;;1.10;99.90;;;;;;5069995;28;20454;-53
2021/01/06 00:33:34;;;;;;;31.23;11.80;;;1.10;99.90;;;;;;5070005;28;20504;-54
2021/01/06 00:36:02;;;;;;;38.47;12.70;;;1.10;99.90;;;;;;5070388;28;20450;-54
2021/01/06 00:38:30;;;;;;;27.67;11.27;;;1.10;99.90;;;;;;5068461;28;20504;-55
2021/01/06 00:40:57;;;;;;;33.33;11.77;;;1.20;99.90;;;;;;5069941;28;20453;-54
2021/01/06 00:43:25;;;;;;;23.37;10.30;;;1.20;99.90;;;;;;5069513;28;20504;-54
2021/01/06 00:45:51;;;;;;;29.27;11.37;;;1.10;99.90;;;;;;5068875;28;20951;-55
2021/01/06 00:48:18;;;;;;;36.57;11.83;;;1.10;99.90;;;;;;5069405;28;20473;-54
2021/01/06 00:50:45;;;;;;;30.03;11.27;;;1.20;99.90;;;;;;5069894;28;20453;-55
2021/01/06 00:53:15;;;;;;;26.17;11.37;;;1.20;99.90;;;;;;5069656;28;20450;-55
2021/01/06 00:55:42;;;;;;;25.40;10.77;;;1.20;99.90;;;;;;5069479;28;20451;-54
2021/01/06 00:58:08;;;;;;;31.93;11.40;;;1.10;99.90;;;;;;5069217;28;20494;-54
2021/01/06 01:00:35;;;;;;;29.13;12.13;;;1.20;99.90;;;;;;5069638;28;20471;-54
2021/01/06 01:03:02;;;;;;;32.40;11.57;;;1.20;99.90;;;;;;5067800;28;20451;-54
2021/01/06 01:05:30;;;;;;;33.07;12.73;;;1.20;99.90;;;;;;5069413;28;20552;-55
2021/01/06 01:07:58;;;;;;;30.50;12.37;;;1.20;99.90;;;;;;5064069;28;20486;-54
2021/01/06 01:10:31;;;;;;;27.33;10.83;;;1.20;99.90;;;;;;5069278;28;20952;-54
2021/01/06 01:12:58;;;;;;;34.73;12.50;;;1.20;99.90;;;;;;5069514;28;20447;-54
2021/01/06 01:15:27;;;;;;;29.03;11.97;;;1.20;99.90;;;;;;5069744;28;20447;-54
2021/01/06 01:17:54;;;;;;;30.23;11.83;;;1.20;99.90;;;;;;5068995;28;20466;-54
2021/01/06 01:20:21;;;;;;;30.37;12.13;;;1.20;99.90;;;;;;5069107;28;20450;-54
2021/01/06 01:22:48;;;;;;;36.10;12.47;;;1.30;99.90;;;;;;5069355;28;20455;-54
2021/01/06 01:25:18;;;;;;;30.37;12.20;;;1.10;99.90;;;;;;5069563;28;20480;-54
2021/01/06 01:27:44;;;;;;;32.50;12.27;;;1.20;99.90;;;;;;5069583;28;20497;-54
2021/01/06 01:30:14;;;;;;;27.67;11.07;;;1.20;99.90;;;;;;5069465;28;20455;-54
2021/01/06 01:32:42;;;;;;;26.10;11.20;;;1.20;99.90;;;;;;5069208;28;20520;-54
2021/01/06 01:35:11;;;;;;;34.37;12.70;;;1.10;99.90;;;;;;5069231;28;21018;-55
2021/01/06 01:37:42;;;;;;;27.63;10.90;;;1.10;99.90;;;;;;5068829;28;20471;-54
2021/01/06 01:40:10;;;;;;;28.90;12.87;;;1.10;99.90;;;;;;5069086;28;20471;-55
2021/01/06 01:42:36;;;;;;;26.80;10.97;;;1.00;99.90;;;;;;5068797;28;20457;-55
2021/01/06 01:45:06;;;;;;;28.53;12.90;;;0.90;99.90;;;;;;5069581;28;20540;-54
2021/01/06 02:10:52;;;;;;;34.30;12.00;;;0.70;99.90;;;;;;5074200;28;20456;-52
2021/01/06 02:13:24;;;;;;;31.57;11.73;;;0.80;99.90;;;;;;5074281;28;21018;-52
2021/01/06 02:16:01;;;;;;;30.90;11.60;;;0.70;99.90;;;;;;5077050;28;20450;-52
2021/01/06 02:18:28;;;;;;;32.70;12.63;;;0.40;99.90;;;;;;5076689;28;20473;-52
2021/01/06 02:21:10;;;;;;;38.53;12.77;;;0.50;99.90;;;;;;5076943;28;20446;-52
2021/01/06 02:23:39;;;;;;;31.87;12.57;;;0.40;99.90;;;;;;5076890;28;20450;-52
2021/01/06 02:26:06;;;;;;;34.80;12.17;;;0.30;99.90;;;;;;5077192;28;20453;-52
2021/01/06 02:28:32;;;;;;;30.70;12.30;;;0.10;99.90;;;;;;5076300;28;20877;-52
2021/01/06 02:30:59;;;;;;;29.97;12.43;;;0.20;99.90;;;;;;5076400;28;20457;-52
2021/01/06 02:33:26;;;;;;;32.83;13.00;;;0.20;99.90;;;;;;5077063;28;20955;-52
2021/01/06 02:35:54;;;;;;;34.13;12.27;;;0.30;99.90;;;;;;5077482;28;20453;-52
2021/01/06 02:38:22;;;;;;;35.57;13.73;;;0.20;99.90;;;;;;5077006;28;20471;-52
2021/01/06 02:40:51;;;;;;;42.43;14.70;;;0.20;99.90;;;;;;5072225;28;20461;-52
2021/01/06 02:43:18;;;;;;;37.27;12.70;;;0.20;99.90;;;;;;5076718;28;20579;-52
2021/01/06 02:45:44;;;;;;;32.37;13.40;;;0.30;99.90;;;;;;5076086;28;21326;-52
2021/01/06 02:48:11;;;;;;;42.70;15.40;;;0.30;99.90;;;;;;5074466;28;20466;-52
2021/01/06 02:50:42;;;;;;;35.17;14.17;;;0.20;99.90;;;;;;5071711;28;20511;-52
2021/01/06 02:53:11;;;;;;;34.07;12.97;;;0.20;99.90;;;;;;5071868;28;20457;-53
2021/01/06 02:55:40;;;;;;;41.50;13.43;;;0.20;99.90;;;;;;5071502;28;20446;-52
2021/01/06 02:58:10;;;;;;;38.43;13.63;;;0.40;99.90;;;;;;5071644;28;20478;-52
2021/01/06 03:00:37;;;;;;;37.50;13.40;;;0.30;99.90;;;;;;5071721;28;20449;-52
2021/01/06 03:03:08;;;;;;;42.07;14.83;;;0.30;99.90;;;;;;5071483;28;20451;-52
2021/01/06 03:05:39;;;;;;;37.60;14.37;;;0.00;99.90;;;;;;5071614;28;20490;-52
2021/01/06 03:08:07;;;;;;;33.07;13.30;;;0.10;99.90;;;;;;5071037;28;20484;-52
2021/01/06 03:10:34;;;;;;;36.53;14.77;;;0.20;99.90;;;;;;5070593;28;20454;-52
2021/01/06 03:13:01;;;;;;;35.47;13.20;;;0.10;99.90;;;;;;5071576;28;20464;-52
2021/01/06 03:15:29;;;;;;;34.30;13.73;;;0.00;99.90;;;;;;5071705;28;20458;-52
2021/01/06 03:17:58;;;;;;;40.23;14.93;;;-0.10;99.90;;;;;;5068907;28;20470;-52
2021/01/06 03:20:28;;;;;;;43.93;15.10;;;0.00;99.90;;;;;;5070816;28;20461;-52
2021/01/06 03:23:00;;;;;;;35.60;13.37;;;0.00;99.90;;;;;;5071019;28;20445;-52
2021/01/06 03:25:26;;;;;;;45.03;15.80;;;0.00;99.90;;;;;;5071629;28;20491;-52
2021/01/06 03:27:55;;;;;;;46.67;15.17;;;-0.20;99.90;;;;;;5070555;28;20473;-52
2021/01/06 03:30:26;;;;;;;37.80;14.03;;;-0.10;99.90;;;;;;5071133;28;20873;-52
2021/01/06 03:33:03;;;;;;;40.80;15.07;;;0.00;99.90;;;;;;5070604;28;20446;-52
2021/01/06 03:35:32;;;;;;;43.40;13.60;;;0.00;99.90;;;;;;5071154;28;20454;-52
2021/01/06 03:38:04;;;;;;;35.17;13.70;;;0.10;99.90;;;;;;5070731;28;20469;-52
2021/01/06 03:40:34;;;;;;;35.17;14.83;;;0.20;99.90;;;;;;5071172;28;21128;-52
2021/01/06 03:43:01;;;;;;;41.73;13.87;;;0.30;99.90;;;;;;5070686;28;20527;-52
2021/01/06 03:45:30;;;;;;;33.27;13.40;;;0.30;99.90;;;;;;5070610;28;20482;-52
2021/01/06 03:48:04;;;;;;;31.67;13.23;;;0.30;99.90;;;;;;5070639;28;20474;-52
2021/01/06 03:50:35;;;;;;;33.00;13.50;;;0.40;99.90;;;;;;5069484;28;20499;-52
2021/01/06 03:53:11;;;;;;;38.30;14.00;;;0.30;99.90;;;;;;5070879;28;20447;-52
2021/01/06 03:55:52;;;;;;;35.90;13.47;;;0.30;99.90;;;;;;5070885;28;20449;-52
2021/01/06 03:58:28;;;;;;;40.17;13.60;;;0.30;99.90;;;;;;5070083;28;20484;-52
2021/01/06 04:01:04;;;;;;;40.83;13.47;;;0.30;99.90;;;;;;5070825;28;20518;-52
2021/01/06 04:03:50;;;;;;;41.30;14.73;;;0.40;99.90;;;;;;5070416;28;20448;-51
2021/01/06 04:06:19;;;;;;;36.90;14.20;;;0.40;99.90;;;;;;5070164;28;20470;-51
2021/01/06 04:08:50;;;;;;;35.20;13.87;;;0.40;99.90;;;;;;5069992;28;20454;-52
2021/01/06 04:11:21;;;;;;;38.70;13.73;;;0.40;99.90;;;;;;5070618;28;20450;-52
2021/01/06 04:13:48;;;;;;;43.70;13.90;;;0.40;99.90;;;;;;5070234;28;20457;-52
2021/01/06 04:16:15;;;;;;;44.43;14.47;;;0.40;99.90;;;;;;5070239;28;20458;-52
2021/01/06 04:18:43;;;;;;;40.27;14.00;;;0.20;99.90;;;;;;5068913;28;20454;-52
2021/01/06 04:21:10;;;;;;;40.67;13.17;;;0.00;99.90;;;;;;5069690;28;20462;-52
2021/01/06 04:23:36;;;;;;;40.60;13.53;;;0.10;99.90;;;;;;5070140;28;20454;-52
2021/01/06 04:26:03;;;;;;;35.47;13.93;;;0.10;99.90;;;;;;5070260;28;20535;-52
2021/01/06 04:28:33;;;;;;;31.03;12.40;;;0.30;99.90;;;;;;5067369;28;20858;-52
2021/01/06 04:31:01;;;;;;;38.97;14.47;;;0.30;99.90;;;;;;5070041;28;20456;-52
2021/01/06 04:33:31;;;;;;;36.70;12.80;;;0.30;99.90;;;;;;5070351;28;20457;-52
2021/01/06 04:36:00;;;;;;;41.23;13.80;;;0.30;99.90;;;;;;5063183;28;20447;-52
2021/01/06 04:38:28;;;;;;;39.03;14.47;;;0.30;99.90;;;;;;5069653;28;20846;-52
2021/01/06 04:40:58;;;;;;;37.97;14.73;;;0.30;99.90;;;;;;5069847;28;20453;-52
2021/01/06 04:43:32;;;;;;;36.70;14.03;;;0.40;99.90;;;;;;5069495;28;20457;-52
2021/01/06 04:46:13;;;;;;;35.87;13.47;;;0.20;99.90;;;;;;5070121;28;20520;-52
2021/01/06 04:48:57;;;;;;;43.87;14.13;;;0.20;99.90;;;;;;5069826;28;20488;-51
2021/01/06 04:51:38;;;;;;;41.03;13.77;;;0.30;99.90;;;;;;5070439;28;20466;-51
2021/01/06 04:54:37;;;;;;;35.17;12.97;;;0.10;99.90;;;;;;5070113;28;20496;-51
2021/01/06 04:57:16;;;;;;;40.40;13.07;;;0.10;99.90;;;;;;5064793;28;21029;-51
2021/01/06 05:00:10;;;;;;;35.83;13.07;;;0.20;99.90;;;;;;5069165;28;20485;-52
2021/01/06 05:03:02;;;;;;;35.30;13.37;;;0.30;99.90;;;;;;5069008;28;20936;-52
2021/01/06 05:05:59;;;;;;;41.87;14.07;;;0.30;99.90;;;;;;5069893;28;20489;-51
2021/01/06 05:08:33;;;;;;;36.57;13.43;;;0.30;99.90;;;;;;5055834;28;21198;-52
2021/01/06 05:11:05;;;;;;;37.43;13.83;;;0.30;99.90;;;;;;5069479;28;20816;-51
2021/01/06 05:13:38;;;;;;;37.27;14.10;;;0.40;99.90;;;;;;5063556;28;20954;-52
2021/01/06 05:16:09;;;;;;;42.40;14.50;;;0.40;99.90;;;;;;5062892;28;20450;-52
2021/01/06 05:18:35;;;;;;;37.57;15.00;;;0.40;99.90;;;;;;5069696;28;20819;-52
2021/01/06 05:21:07;;;;;;;37.93;13.73;;;0.40;99.90;;;;;;5069197;28;20881;-52
2021/01/06 05:23:37;;;;;;;31.93;13.43;;;0.40;99.90;;;;;;5069803;28;20489;-52
2021/01/06 05:26:04;;;;;;;43.30;14.70;;;0.40;99.90;;;;;;5069776;28;20572;-51
2021/01/06 05:28:31;;;;;;;37.97;15.10;;;0.20;99.90;;;;;;5061909;28;20474;-52
2021/01/06 05:30:59;;;;;;;38.67;13.50;;;0.30;99.90;;;;;;5069443;28;20526;-51
2021/01/06 05:33:31;;;;;;;36.97;13.70;;;0.20;99.90;;;;;;5072038;28;20881;-52
2021/01/06 05:35:58;;;;;;;39.90;15.43;;;0.30;99.90;;;;;;5073241;28;20513;-51
2021/01/06 05:38:26;;;;;;;40.23;15.27;;;0.30;99.90;;;;;;5073229;28;20994;-52
2021/01/06 05:40:52;;;;;;;38.77;15.00;;;0.30;99.90;;;;;;5072561;28;20466;-52
2021/01/06 05:43:39;;;;;;;39.07;14.97;;;0.30;99.90;;;;;;5073075;28;20454;-52
2021/01/06 05:46:09;;;;;;;39.80;15.17;;;0.30;99.90;;;;;;5072716;28;20480;-51
2021/01/06 05:48:38;;;;;;;35.70;14.07;;;0.40;99.90;;;;;;5073170;28;20484;-51
2021/01/06 05:51:15;;;;;;;36.00;14.10;;;0.30;99.90;;;;;;5073218;28;20454;-51
2021/01/06 05:53:46;;;;;;;36.10;13.00;;;0.30;99.90;;;;;;5073001;28;20449;-51
2021/01/06 05:56:29;;;;;;;39.53;14.30;;;0.30;99.90;;;;;;5073175;28;20457;-51
2021/01/06 05:59:02;;;;;;;37.30;13.67;;;0.40;99.90;;;;;;5066393;28;20458;-51
2021/01/06 06:01:40;;;;;;;36.17;13.97;;;0.40;99.90;;;;;;5072738;28;20487;-52
2021/01/06 06:04:29;;;;;;;32.20;13.17;;;0.40;99.90;;;;;;5073007;28;20478;-51
2021/01/06 06:07:07;;;;;;;42.43;14.73;;;0.20;99.90;;;;;;5065404;28;20871;-51
2021/01/06 06:09:51;;;;;;;34.80;14.30;;;0.30;99.90;;;;;;5072870;28;20458;-52
2021/01/06 06:12:55;;;;;;;47.13;15.50;;;0.20;99.90;;;;;;5072858;28;20804;-51
2021/01/06 06:15:54;;;;;;;32.77;13.63;;;0.20;99.90;;;;;;5072895;28;20449;-51
2021/01/06 06:18:38;;;;;;;42.47;14.80;;;0.10;99.90;;;;;;5046940;28;21046;-51
2021/01/06 06:21:31;;;;;;;47.53;16.80;;;0.10;99.90;;;;;;5072273;28;20450;-51
2021/01/06 06:24:19;;;;;;;36.57;14.83;;;0.00;99.90;;;;;;5069682;28;20781;-51
2021/01/06 06:26:59;;;;;;;40.40;15.40;;;0.00;99.90;;;;;;5072174;28;20524;-51
2021/01/06 06:29:33;;;;;;;40.70;16.33;;;0.10;99.90;;;;;;5072760;28;20445;-51
2021/01/06 06:32:01;;;;;;;39.90;16.07;;;0.10;99.90;;;;;;5072184;28;20482;-52
2021/01/06 06:34:31;;;;;;;46.17;16.43;;;0.10;99.90;;;;;;5072048;28;20449;-52
2021/01/06 06:37:09;;;;;;;40.23;16.03;;;0.20;99.90;;;;;;5070669;28;20473;-52
2021/01/06 06:39:39;;;;;;;45.67;16.37;;;0.10;99.90;;;;;;5072130;28;20452;-51
2021/01/06 06:42:20;;;;;;;47.13;17.60;;;0.10;99.90;;;;;;5072286;28;20993;-51
2021/01/06 06:44:57;;;;;;;38.77;16.47;;;0.20;99.90;;;;;;5071245;28;20481;-51
2021/01/06 06:47:31;;;;;;;48.73;17.57;;;0.20;99.90;;;;;;5064801;28;20473;-51
2021/01/06 06:50:46;;;;;;;49.67;17.33;;;0.20;99.90;;;;;;5071488;28;20444;-52
2021/01/06 06:53:20;;;;;;;48.20;16.57;;;0.20;99.90;;;;;;5009474;28;20587;-52
2021/01/06 06:55:55;;;;;;;47.57;17.10;;;0.20;99.90;;;;;;5068600;28;20815;-51
2021/01/06 06:58:39;;;;;;;55.90;19.63;;;0.20;99.90;;;;;;5071407;28;20875;-52
2021/01/06 07:01:09;;;;;;;52.20;19.63;;;0.10;99.90;;;;;;5067024;28;21180;-51
2021/01/06 07:03:39;;;;;;;52.60;19.90;;;0.00;99.90;;;;;;5071276;28;20450;-51
2021/01/06 07:06:10;;;;;;;51.40;18.03;;;0.10;99.90;;;;;;5068376;28;20486;-51
2021/01/06 07:08:43;;;;;;;46.97;18.33;;;0.20;99.90;;;;;;5070535;28;21034;-52
2021/01/06 07:11:26;;;;;;;51.90;19.40;;;0.20;99.90;;;;;;5070676;28;20468;-51
2021/01/06 07:14:00;;;;;;;51.33;19.13;;;0.20;99.90;;;;;;5064479;28;21024;-51
2021/01/06 07:16:32;;;;;;;52.07;18.50;;;0.20;99.90;;;;;;5071042;28;20461;-52
2021/01/06 07:19:15;;;;;;;50.00;19.60;;;0.30;99.90;;;;;;5070727;28;21112;-52
2021/01/06 07:21:41;;;;;;;53.47;18.47;;;0.30;99.90;;;;;;5071394;28;20480;-52
2021/01/06 07:24:18;;;;;;;46.57;17.67;;;0.30;99.90;;;;;;5071235;28;20482;-52
2021/01/06 07:26:48;;;;;;;45.23;17.80;;;0.30;99.90;;;;;;5070738;28;21238;-51
2021/01/06 07:29:18;;;;;;;44.83;16.57;;;0.40;99.90;;;;;;5065957;28;20457;-52
2021/01/06 07:31:53;;;;;;;51.53;17.63;;;0.40;99.90;;;;;;5069968;28;20453;-51
2021/01/06 07:34:23;;;;;;;44.27;17.40;;;0.30;99.90;;;;;;5068543;28;20539;-51
2021/01/06 07:36:53;;;;;;;43.63;17.87;;;0.30;99.90;;;;;;5071087;28;20465;-52
2021/01/06 07:39:22;;;;;;;46.63;17.07;;;0.30;99.90;;;;;;5069343;28;20512;-51
2021/01/06 07:41:49;;;;;;;46.20;16.50;;;0.40;99.90;;;;;;5070073;28;20449;-52
2021/01/06 07:44:23;;;;;;;44.37;17.67;;;0.40;99.90;;;;;;5070675;28;20481;-51
2021/01/06 07:46:57;;;;;;;51.05;22.40;;;0.60;99.90;;;;;;5066616;28;20460;-51
2021/01/06 07:49:44;;;;;;;54.73;21.20;;;0.60;99.90;;;;;;5069987;28;20203;-51
2021/01/06 07:52:50;;;;;;;44.77;17.93;;;0.50;99.90;;;;;;5063982;28;20457;-51
2021/01/06 07:55:24;;;;;;;48.30;17.77;;;0.50;99.90;;;;;;5052459;28;20460;-52
2021/01/06 07:57:56;;;;;;;39.67;16.20;;;0.70;99.90;;;;;;5067769;28;20541;-51
2021/01/06 08:00:29;;;;;;;49.70;17.73;;;0.70;99.90;;;;;;5070500;28;20454;-52
2021/01/06 08:03:19;;;;;;;39.90;16.27;;;0.60;99.90;;;;;;5070210;28;20800;-52
2021/01/06 08:05:55;;;;;;;45.30;16.77;;;0.70;99.90;;;;;;5070667;28;20482;-51
2021/01/06 08:08:23;;;;;;;50.53;18.33;;;0.60;99.90;;;;;;5069410;28;20532;-52
2021/01/06 08:10:50;;;;;;;41.13;17.70;;;0.70;99.90;;;;;;5069993;28;21001;-52
2021/01/06 08:13:25;;;;;;;42.53;17.37;;;0.80;99.90;;;;;;5067981;28;20453;-51
2021/01/06 08:15:56;;;;;;;44.90;16.37;;;0.80;99.90;;;;;;5066402;28;20446;-52
2021/01/06 08:18:33;;;;;;;46.50;18.80;;;0.90;99.90;;;;;;5069975;28;20495;-52
2021/01/06 08:21:12;;;;;;;47.20;17.03;;;1.00;99.90;;;;;;5069075;28;20459;-53
2021/01/06 08:24:03;;;;;;;44.83;17.30;;;1.00;99.90;;;;;;5063394;28;20449;-53
2021/01/06 08:26:30;;;;;;;56.40;20.30;;;1.00;99.90;;;;;;5069963;28;20447;-53
2021/01/06 08:29:15;;;;;;;54.50;21.47;;;0.90;99.90;;;;;;5069966;28;20821;-53
2021/01/06 08:31:43;;;;;;;53.67;22.63;;;0.80;99.90;;;;;;5057550;28;20811;-53
2021/01/06 08:34:21;;;;;;;50.90;19.20;;;1.00;99.90;;;;;;5069716;28;20207;-52
2021/01/06 08:36:54;;;;;;;49.70;18.77;;;0.90;99.90;;;;;;5070011;28;20470;-52
2021/01/06 08:39:23;;;;;;;44.23;18.60;;;0.80;99.90;;;;;;5069329;28;20481;-52
2021/01/06 08:41:50;;;;;;;55.80;19.30;;;0.70;99.90;;;;;;5070117;28;20454;-52
2021/01/06 08:44:29;;;;;;;41.67;17.63;;;0.80;99.90;;;;;;5069929;28;20821;-52
2021/01/06 08:46:58;;;;;;;50.00;18.53;;;1.00;99.90;;;;;;5068146;28;21005;-52
2021/01/06 08:49:29;;;;;;;49.37;17.50;;;1.00;99.90;;;;;;5069356;28;20455;-52
2021/01/06 08:52:10;;;;;;;48.67;18.10;;;1.10;99.90;;;;;;5069941;28;20458;-51
2021/01/06 08:54:36;;;;;;;47.00;18.10;;;1.20;99.90;;;;;;5069605;28;20458;-52
2021/01/06 08:57:05;;;;;;;48.33;18.27;;;1.20;99.90;;;;;;5069485;28;20481;-52
2021/01/06 08:59:36;;;;;;;49.37;19.17;;;1.30;99.90;;;;;;5069277;28;20453;-52
2021/01/06 09:02:15;;;;;;;44.97;17.30;;;1.40;99.90;;;;;;5069860;28;20509;-51
2021/01/06 09:04:43;;;;;;;42.27;16.90;;;1.60;99.90;;;;;;5069444;28;20478;-51
2021/01/06 09:07:22;;;;;;;48.63;19.00;;;1.50;99.90;;;;;;5070219;28;21002;-51
2021/01/06 09:10:05;;;;;;;43.57;17.10;;;1.50;99.90;;;;;;5073567;28;20457;-51
2021/01/06 09:12:50;;;;;;;45.60;17.50;;;1.40;99.90;;;;;;5074163;28;20519;-52
2021/01/06 09:15:30;;;;;;;39.03;17.30;;;1.30;99.90;;;;;;5073483;28;20456;-52
2021/01/06 09:18:03;;;;;;;48.70;19.73;;;1.40;99.90;;;;;;5073199;28;20480;-52
2021/01/06 09:20:37;;;;;;;48.83;18.90;;;1.40;99.90;;;;;;5073440;28;20446;-52
2021/01/06 09:23:05;;;;;;;41.97;16.27;;;1.30;99.90;;;;;;5073245;28;20826;-52
2021/01/06 09:25:32;;;;;;;46.40;17.10;;;1.40;99.90;;;;;;5073029;28;20488;-52
2021/01/06 09:28:01;;;;;;;43.23;18.60;;;1.50;99.90;;;;;;5072286;28;20470;-52
2021/01/06 09:30:32;;;;;;;40.80;17.20;;;1.40;99.90;;;;;;5072544;28;20454;-52
2021/01/06 09:33:01;;;;;;;45.70;16.90;;;1.40;99.90;;;;;;5073069;28;20454;-51
2021/01/06 09:35:32;;;;;;;46.40;18.17;;;1.40;99.90;;;;;;5065554;28;20450;-51
2021/01/06 09:38:03;;;;;;;45.73;17.40;;;1.40;99.90;;;;;;5073084;28;20500;-52
2021/01/06 09:40:32;;;;;;;50.47;17.90;;;1.30;99.90;;;;;;5072955;28;20457;-52
2021/01/06 09:43:01;;;;;;;44.40;17.90;;;1.40;99.90;;;;;;5073090;28;20504;-52
2021/01/06 09:45:29;;;;;;;39.20;16.43;;;1.40;99.90;;;;;;5072810;28;20482;-52
2021/01/06 09:47:58;;;;;;;37.53;16.17;;;1.50;99.90;;;;;;5073130;28;20466;-52
2021/01/06 09:50:32;;;;;;;45.17;18.10;;;1.60;99.90;;;;;;5072521;28;20453;-52
2021/01/06 09:53:01;;;;;;;37.30;15.97;;;1.60;99.90;;;;;;5072946;28;20446;-51
2021/01/06 09:55:29;;;;;;;40.10;15.90;;;1.70;99.90;;;;;;5072493;28;20450;-50
2021/01/06 09:58:04;;;;;;;41.23;16.53;;;1.70;99.90;;;;;;5072769;28;20477;-54
2021/01/06 10:00:44;;;;;;;46.60;16.23;;;1.70;99.90;;;;;;5072095;28;21032;-52
2021/01/06 10:03:12;;;;;;;38.63;15.77;;;1.80;99.90;;;;;;5072693;28;20457;-52
2021/01/06 10:05:48;;;;;;;40.67;16.40;;;1.90;99.90;;;;;;5071799;28;20861;-53
2021/01/06 10:08:27;;;;;;;45.77;18.10;;;1.80;99.90;;;;;;5071320;28;20490;-53
2021/01/06 10:10:58;;;;;;;43.93;17.80;;;1.60;99.90;;;;;;5072169;28;20459;-52
2021/01/06 10:13:34;;;;;;;43.57;18.20;;;1.50;99.90;;;;;;5072214;28;20805;-53
2021/01/06 10:16:09;;;;;;;55.07;18.47;;;1.60;99.90;;;;;;5072027;28;20454;-53
2021/01/06 10:18:42;;;;;;;45.30;17.93;;;1.50;99.90;;;;;;5071952;28;20538;-53
2021/01/06 10:21:22;;;;;;;46.57;17.80;;;1.70;99.90;;;;;;5072376;28;20462;-53
2021/01/06 10:24:18;;;;;;;36.30;16.57;;;1.60;99.90;;;;;;5072462;28;20507;-53
2021/01/06 10:27:02;;;;;;;40.87;17.20;;;1.60;99.90;;;;;;5068753;28;20476;-53
2021/01/06 10:29:41;;;;;;;39.20;16.50;;;1.50;99.90;;;;;;5071906;28;20447;-53
2021/01/06 10:32:27;;;;;;;45.80;18.30;;;1.60;99.90;;;;;;5071824;28;20518;-53
2021/01/06 10:35:26;;;;;;;36.77;16.43;;;1.80;99.90;;;;;;5071974;28;20446;-52
2021/01/06 10:37:53;;;;;;;45.43;16.53;;;1.90;99.90;;;;;;5071669;28;20501;-53
2021/01/06 10:40:30;;;;;;;41.63;17.00;;;1.80;99.90;;;;;;5071405;28;20458;-53
2021/01/06 10:42:57;;;;;;;39.50;17.20;;;1.70;99.90;;;;;;5071962;28;20943;-52
2021/01/06 10:45:47;;;;;;;40.57;16.47;;;1.90;99.90;;;;;;5071623;28;20572;-53
2021/01/06 10:48:43;;;;;;;42.53;17.33;;;2.00;99.90;;;;;;5071416;28;20902;-53
2021/01/06 10:51:10;;;;;;;42.33;17.70;;;2.10;99.90;;;;;;5070008;28;20511;-53
2021/01/06 10:53:41;;;;;;;42.43;16.90;;;2.10;99.90;;;;;;5071010;28;20458;-52
2021/01/06 10:56:10;;;;;;;42.10;16.40;;;2.20;99.90;;;;;;5071740;28;21054;-52
2021/01/06 10:58:50;;;;;;;40.70;17.40;;;2.30;99.90;;;;;;5071277;28;20537;-52
2021/01/06 11:01:38;;;;;;;43.07;16.57;;;2.20;99.90;;;;;;5071579;28;20973;-52
2021/01/06 11:04:39;;;;;;;42.50;17.87;;;2.00;99.90;;;;;;5071357;28;20454;-53
2021/01/06 11:07:23;;;;;;;45.60;17.73;;;2.10;99.90;;;;;;5064719;28;20561;-52
2021/01/06 11:10:12;;;;;;;40.70;16.90;;;2.10;99.90;;;;;;5071178;28;20482;-53
2021/01/06 11:13:03;;;;;;;38.37;16.40;;;2.30;99.90;;;;;;5040949;28;20496;-52
2021/01/06 11:15:53;;;;;;;46.33;16.40;;;2.30;99.90;;;;;;5071438;28;20450;-52
2021/01/06 11:18:35;;;;;;;43.27;16.70;;;2.20;99.90;;;;;;5063387;28;20471;-53
2021/01/06 11:21:14;;;;;;;44.47;15.97;;;2.50;99.90;;;;;;5070887;28;20465;-53
2021/01/06 11:23:59;;;;;;;40.63;16.83;;;2.60;99.90;;;;;;5070738;28;20446;-53
2021/01/06 11:26:46;;;;;;;41.20;17.73;;;2.40;99.90;;;;;;5064341;28;21014;-53
2021/01/06 11:29:50;;;;;;;43.50;17.10;;;2.40;99.90;;;;;;5070344;28;22230;-53
2021/01/06 11:32:35;;;;;;;37.23;16.80;;;2.50;99.90;;;;;;5070941;28;20453;-53
2021/01/06 11:35:20;;;;;;;37.90;16.30;;;2.70;99.90;;;;;;5070825;28;20439;-53
2021/01/06 11:37:47;;;;;;;36.57;15.73;;;2.60;99.90;;;;;;5070676;28;20532;-53
2021/01/06 11:40:31;;;;;;;39.63;16.13;;;2.80;99.90;;;;;;5070292;28;20454;-53
2021/01/06 11:43:33;;;;;;;39.90;17.60;;;2.60;99.90;;;;;;5066168;28;20446;-53
2021/01/06 11:46:32;;;;;;;41.80;16.80;;;2.70;99.90;;;;;;5070929;28;20492;-53
2021/01/06 11:49:17;;;;;;;40.20;14.57;;;2.60;99.90;;;;;;5065554;28;20463;-53
2021/01/06 11:52:31;;;;;;;44.23;17.87;;;2.70;99.90;;;;;;5070702;28;20450;-53
2021/01/06 11:55:07;;;;;;;39.43;16.17;;;2.80;99.90;;;;;;5070648;28;20465;-53
2021/01/06 11:57:42;;;;;;;43.43;17.20;;;2.80;99.90;;;;;;5069564;28;20856;-53
2021/01/06 12:00:27;;;;;;;35.77;15.47;;;2.80;99.90;;;;;;5070265;28;20450;-53
2021/01/06 12:03:14;;;;;;;43.00;15.57;;;2.90;99.90;;;;;;5070688;28;20446;-52
2021/01/06 12:05:56;;;;;;;33.80;14.60;;;2.80;99.90;;;;;;5069338;28;20547;-53
2021/01/06 12:08:29;;;;;;;38.97;15.40;;;2.80;99.90;;;;;;5069360;28;20502;-53
2021/01/06 12:11:08;;;;;;;37.50;16.10;;;2.90;99.90;;;;;;5069610;28;20451;-53
2021/01/06 12:13:45;;;;;;;39.00;16.97;;;2.90;99.90;;;;;;5070338;28;20447;-53
2021/01/06 12:16:15;;;;;;;37.37;16.57;;;2.70;99.90;;;;;;5062015;28;20450;-53
2021/01/06 12:19:09;;;;;;;47.20;17.07;;;2.50;99.90;;;;;;5066587;28;20489;-53
2021/01/06 12:22:10;;;;;;;40.10;16.90;;;2.70;99.90;;;;;;5065461;28;21014;-53
2021/01/06 12:24:44;;;;;;;38.37;15.50;;;2.60;99.90;;;;;;5065439;28;20450;-52
2021/01/06 12:27:42;;;;;;;40.47;16.23;;;2.50;99.90;;;;;;5069232;28;20479;-52
2021/01/06 12:30:38;;;;;;;45.33;15.77;;;2.70;99.90;;;;;;5027909;28;20451;-53
2021/01/06 12:33:31;;;;;;;37.73;15.13;;;2.80;99.90;;;;;;5056334;28;20451;-52
2021/01/06 12:36:12;;;;;;;40.60;15.53;;;2.70;99.90;;;;;;5070525;28;20461;-53
2021/01/06 12:38:39;;;;;;;39.20;16.27;;;2.80;99.90;;;;;;5070157;28;20485;-53
2021/01/06 12:41:11;;;;;;;37.80;15.10;;;2.80;99.90;;;;;;5063949;28;20496;-54
2021/01/06 12:43:43;;;;;;;38.73;15.10;;;3.00;99.90;;;;;;5069052;28;20751;-53
2021/01/06 12:46:22;;;;;;;41.77;15.53;;;3.00;99.90;;;;;;5068734;28;20479;-53
2021/01/06 12:49:25;;;;;;;43.30;15.40;;;2.90;99.90;;;;;;5068993;28;21021;-51
2021/01/06 12:52:21;;;;;;;38.50;15.87;;;2.80;99.90;;;;;;5069771;28;20450;-53
2021/01/06 12:54:52;;;;;;;40.70;16.50;;;2.80;99.90;;;;;;5069666;28;20458;-52
2021/01/06 12:57:25;;;;;;;35.17;15.30;;;2.70;99.90;;;;;;5069754;28;20482;-52
2021/01/06 12:59:55;;;;;;;37.47;14.37;;;2.80;99.90;;;;;;5069215;28;20451;-53
2021/01/06 13:02:29;;;;;;;34.90;14.90;;;2.90;99.90;;;;;;5069386;28;21056;-52
2021/01/06 13:05:00;;;;;;;36.23;15.20;;;2.90;99.90;;;;;;5061831;28;20907;-52
2021/01/06 13:07:32;;;;;;;35.40;14.83;;;2.90;99.90;;;;;;5069399;28;20548;-52
2021/01/06 13:10:04;;;;;;;38.03;14.03;;;3.10;99.90;;;;;;5061397;28;20451;-52
2021/01/06 13:12:38;;;;;;;37.10;15.60;;;2.90;99.90;;;;;;5069333;28;20500;-53
2021/01/06 13:15:12;;;;;;;36.20;15.10;;;2.90;99.90;;;;;;5069456;28;20873;-53
2021/01/06 13:17:42;;;;;;;39.53;15.20;;;3.00;99.90;;;;;;5068826;28;21063;-53
2021/01/06 13:20:35;;;;;;;37.83;14.57;;;3.20;99.90;;;;;;5069237;28;21153;-53
2021/01/06 13:23:28;;;;;;;37.90;15.07;;;3.10;99.90;;;;;;5063353;28;20467;-53
2021/01/06 13:26:33;;;;;;;36.60;15.30;;;3.10;99.90;;;;;;5068644;28;21058;-53
2021/01/06 13:29:12;;;;;;;37.03;15.30;;;3.00;99.90;;;;;;5068948;28;20959;-53
2021/01/06 13:31:44;;;;;;;33.73;14.33;;;2.80;99.90;;;;;;5068924;28;20446;-53
2021/01/06 13:34:22;;;;;;;32.10;13.83;;;2.90;99.90;;;;;;5068096;28;20862;-53
2021/01/06 13:36:54;;;;;;;39.27;13.70;;;2.90;99.90;;;;;;5065572;28;20531;-53
2021/01/06 13:39:28;;;;;;;35.33;14.40;;;3.00;99.90;;;;;;5061215;28;20454;-52